Airfield :
LOGIN :

Register | Disclaimer

   EN    FR    IT 

 










Legend :    VFR   Marginal VFR   IFR   Intensive IFR   Very Intensive IFR
Visi :
Ceiling :
>= 8 km
>= 3000ft
5 to 8 km
1000 to 3000 ft
1500m to 5 km
500 to 1000 ft
800 to 1500m
200 to 500 ft
< 800m
< 200 ft
Symbols :   Thunderstorms  Fog  Heavy snow  Heavy precipitations  Wind > 20 kt
SIGMETs :     Misc.  Thunderstorms  Icing  Turbulence  Mountain Waves  Volcanic Ashes






- Airport Elevation : 1079 ft


ETIK - Illesheim Air Base

CURRENT METAR :
  • 121055Z AUTO 31005KT 9999 CLR 18/05 A3049 RMK AO2 SLP330 T01820051 $

EXPIRED METARs :
  • 120955Z AUTO 28005KT 9999 CLR 17/05 A3051 RMK AO2 SLP337 T01670050
  • 120855Z AUTO 00000KT 9999 CLR 16/06 A3051 RMK AO2 SLP337 T01570061 58001 $
  • 120755Z AUTO 00000KT 9999 CLR 13/05 A3052 RMK AO2 SLP342 T01250049 $
  • 120655Z AUTO 00000KT 9999 CLR 09/05 A3052 RMK AO2 SLP343 T00890045 $
  • 120555Z AUTO 00000KT 9999 CLR 06/04 A3051 RMK AO2 SLP338 T00560038 10056 20018 53001

TAF TAF ETIK
Valid from the 12 at 06:00 until the 13 at 12:00 UTC


120600Z 1206/1312 VRB06KT 9999 FEW180 QNH3049INS
BECMG 1211/1212 27009KT 9999 FEW180 QNH3042INS
BECMG 1217/1218 VRB06KT 9999 FEW040 FEW150 QNH3034INS TX20/1215Z TN05/1206Z



MET'MAP, your aeronautical weather chart ! - Copyright ORBIFLY December 2007 - Disclaimer

ORBIFLY MET'MAP TEAM :

Programming & Development : Alexandra Zaïnal
Original concept : Baudouin d'Aumeries
Technical & hardware support : Manuel Goepfert
Assistance : Marc-Olivier Méhu




SOURCES & CREDITS :

   NOAA